Terminal Aerodrome Forecast
Issued by NWS

Home | Current Version | Previous Version | Graphics & Text | Print | Product List | Glossary On
Versions: 1 2 3 4 5 6 7 8 9 10 11 12 13 14 15 16 17 18 19 20 21 22 23 24 25 26 27 28 29 30
673
FTUS43 KGLD 161137
TAFMCK
TAF
KMCK 161137Z 1612/1712 36010KT 5SM -FZRASN OVC005
     FM161600 36012KT 2SM -SN OVC003
      TEMPO 1616/1620 1/2SM SN OVC003
     FM162300 34013G19KT P6SM VCSH SCT003 OVC010
     FM170100 34011KT P6SM SCT010 BKN015
     FM170200 32009KT P6SM SCT015 BKN040=

USA.gov is the U.S. government's official web portal to all federal, state and local government web resources and services.